Pagrindinis puslapis
METAR-TAF:

METAR-TAF

Oro uostai :

Antananaryvas, Madagaskaras

platuma: 18-48S, ilguma: 047-29E, Aukštis: 1279 m

Dabartinis oras

Ataskaita buvo paskelbta 26 minutes, ne 19:30 UTC
Vėjas 13 kt iš Pietų/Pietryčių
Temperatūra 22°C
Drėgmė 50%
Slėgis 1022 hPa
Matomumas 10 km arba daugiau
Mažai debesys ne aukštis 2000 ft

METAR: FMMI 221930Z 15013KT0 9999 FEW020 22/11 Q1022 NOSIG

Laikas: 22:56 (19:56 UTC)

Prognozė

Ataskaita buvo paskelbta 2 valandos ir 56 minutes, ne 17:00 UTC
Prognozė galioja nuo 22 metu 18 UTC su 23 metu 24 UTC
Vėjas 3 kt nuo kintamojo kryptimis
Matomumas 10 km arba daugiau
Išsisklaidę debesys ne aukštis 2000 ft
Tikimybė 30%
nuo 23 metu 01 UTC su 23 metu 05 UTC
Matomumas: 1500 m
Su prošvaistėmis ne aukštis 600 ft
rūkana
Tapsmas
nuo 23 metu 06 UTC su 23 metu 08 UTC
Vėjas 14 kt iš Pietryčių

TAF: FMMI 221700Z 2218/2324 VRB03KT 9999 SCT020 PROB30 2301/2305 1500 BR BKN006 BECMG 2306/2308 14014KT

Orai ataskaitas ir orų prognozės (METAR, TAF).

turimą stotys yra geltonos ir raudonos taškus žemėlapyje.

Perkelti pele per norėdami pamatyti stoties vardą.

Tada spustelėkite, norėdami matyti oro stebėjimo ir prognozės.

Norėdami pakeisti žemėlapį: spustelėkite ant žalios mygtukų su juodo kryžiaus žemyn,; žalią mygtuką su brūkšneliu, jei norite nutolinti; arba žalių rodyklių gretimoms žemėlapius.


METAR-TAF: